createdAt,value
2022-12-11T00:02:11.611Z,24.00
2022-12-11T00:04:38.150Z,20.00
2022-12-11T00:07:04.654Z,33.60
2022-12-11T00:09:31.116Z,26.50
2022-12-11T00:11:57.609Z,24.80
2022-12-11T00:14:24.033Z,29.60
2022-12-11T00:16:50.590Z,27.20
2022-12-11T00:19:17.105Z,28.20
2022-12-11T00:21:43.588Z,34.00
2022-12-11T00:24:10.577Z,36.40
2022-12-11T00:26:37.211Z,35.75
2022-12-11T00:29:03.809Z,46.00
2022-12-11T00:31:30.358Z,33.40
2022-12-11T00:33:56.850Z,36.80
2022-12-11T00:36:24.643Z,26.00
2022-12-11T00:38:51.603Z,24.40
2022-12-11T00:41:18.487Z,21.50
2022-12-11T00:43:44.926Z,23.40
2022-12-11T00:46:11.785Z,29.25
2022-12-11T00:48:38.793Z,19.00
2022-12-11T00:51:05.456Z,23.00
2022-12-11T00:53:31.900Z,23.60
2022-12-11T00:55:58.364Z,28.00
2022-12-11T00:58:24.960Z,21.20
2022-12-11T01:00:52.066Z,19.00
2022-12-11T01:03:19.000Z,27.00
2022-12-11T01:05:55.007Z,25.75
2022-12-11T01:08:21.596Z,27.00
2022-12-11T01:10:48.244Z,20.80
2022-12-11T01:13:14.809Z,17.60
2022-12-11T01:15:42.865Z,21.00
2022-12-11T01:18:10.434Z,19.00
2022-12-11T01:20:37.778Z,27.00
2022-12-11T01:23:04.223Z,16.00
2022-12-11T01:25:30.730Z,23.00
2022-12-11T01:27:57.258Z,22.00
2022-12-11T01:30:24.836Z,27.00
2022-12-11T01:32:51.415Z,32.00
2022-12-11T01:35:18.289Z,21.00
2022-12-11T01:37:45.216Z,23.40
2022-12-11T01:40:13.256Z,23.75
2022-12-11T01:42:39.865Z,26.75
2022-12-11T01:45:15.764Z,19.60
2022-12-11T01:47:42.276Z,29.50
2022-12-11T01:50:08.858Z,17.60
2022-12-11T01:52:35.819Z,21.50
2022-12-11T01:55:02.534Z,21.40
2022-12-11T01:57:29.761Z,17.60
2022-12-11T01:59:56.325Z,23.50
2022-12-11T02:02:26.406Z,18.50
2022-12-11T02:04:52.864Z,16.00
2022-12-11T02:07:19.434Z,23.00
2022-12-11T02:09:47.087Z,18.80
2022-12-11T02:12:25.460Z,16.60
2022-12-11T02:15:11.547Z,20.60
2022-12-11T02:17:44.303Z,27.00
2022-12-11T02:20:26.702Z,17.60
2022-12-11T02:22:59.093Z,23.00
2022-12-11T02:25:41.830Z,21.80
2022-12-11T02:28:20.337Z,20.40
2022-12-11T02:30:49.768Z,19.00
2022-12-11T02:33:16.700Z,18.00
2022-12-11T02:35:44.193Z,18.40
2022-12-11T02:38:25.373Z,21.00
2022-12-11T02:40:53.499Z,16.00
2022-12-11T02:43:20.999Z,15.00
2022-12-11T02:45:48.648Z,20.80
2022-12-11T02:48:16.349Z,21.00
2022-12-11T02:50:44.311Z,22.80
2022-12-11T02:53:12.347Z,17.00
2022-12-11T02:55:40.624Z,19.40
2022-12-11T02:58:14.606Z,16.00
2022-12-11T03:00:41.106Z,20.60
2022-12-11T03:03:07.856Z,14.00
2022-12-11T03:05:34.425Z,18.20
2022-12-11T03:08:01.916Z,20.25
2022-12-11T03:10:28.573Z,17.00
2022-12-11T03:12:56.997Z,20.40
2022-12-11T03:15:26.569Z,21.50
2022-12-11T03:18:01.993Z,15.60
2022-12-11T03:20:29.758Z,17.00
2022-12-11T03:23:02.803Z,15.80
2022-12-11T03:25:34.551Z,18.00
2022-12-11T03:28:12.981Z,18.00
2022-12-11T03:30:40.234Z,21.75
2022-12-11T03:33:12.105Z,20.75
2022-12-11T03:35:48.765Z,26.25
2022-12-11T03:38:27.966Z,16.75
2022-12-11T03:40:56.428Z,21.40
2022-12-11T03:43:23.303Z,20.25
2022-12-11T03:45:51.896Z,18.00
2022-12-11T03:48:18.846Z,17.20
2022-12-11T03:50:46.150Z,21.80
2022-12-11T03:53:12.925Z,21.00
2022-12-11T03:55:39.741Z,24.80
2022-12-11T03:58:06.351Z,22.00
2022-12-11T04:00:33.176Z,22.00
2022-12-11T04:03:15.137Z,25.60
2022-12-11T04:05:46.396Z,21.00
2022-12-11T04:08:13.458Z,22.60
2022-12-11T04:10:40.808Z,31.50
2022-12-11T04:13:07.595Z,49.00
2022-12-11T04:15:34.340Z,27.75
2022-12-11T04:18:19.449Z,22.25
2022-12-11T04:21:04.543Z,27.25
2022-12-11T04:23:49.454Z,21.60
2022-12-11T04:26:17.715Z,26.25
2022-12-11T04:28:45.039Z,34.75
2022-12-11T04:31:15.849Z,29.00
2022-12-11T04:33:42.765Z,20.40
2022-12-11T04:36:10.216Z,26.20
2022-12-11T04:38:38.597Z,26.75
2022-12-11T04:41:06.731Z,26.00
2022-12-11T04:43:33.221Z,22.00
2022-12-11T04:46:02.682Z,22.00
2022-12-11T04:48:29.218Z,27.33
2022-12-11T04:50:55.664Z,25.50
2022-12-11T04:53:22.119Z,29.50
2022-12-11T04:55:48.581Z,26.00
2022-12-11T04:58:15.038Z,25.00
2022-12-11T05:00:42.009Z,18.00
2022-12-11T05:03:08.845Z,32.00
2022-12-11T05:05:35.383Z,28.00
2022-12-11T05:08:02.159Z,23.25
2022-12-11T05:10:28.665Z,23.00
2022-12-11T05:12:55.096Z,24.00
2022-12-11T05:15:21.552Z,26.50
2022-12-11T05:17:48.143Z,27.25
2022-12-11T05:20:14.576Z,29.00
2022-12-11T05:22:41.035Z,33.00
2022-12-11T05:25:08.006Z,20.50
2022-12-11T05:27:34.615Z,22.00
2022-12-11T05:30:01.025Z,21.00
2022-12-11T05:32:27.494Z,23.00
2022-12-11T05:34:53.949Z,21.60
2022-12-11T05:37:21.066Z,22.00
2022-12-11T05:39:47.537Z,22.60
2022-12-11T05:42:13.981Z,24.50
2022-12-11T05:44:40.444Z,19.20
2022-12-11T05:47:06.955Z,22.00
2022-12-11T05:49:33.373Z,27.00
2022-12-11T05:51:59.929Z,17.40
2022-12-11T05:54:26.443Z,21.20
2022-12-11T05:56:52.861Z,26.50
2022-12-11T05:59:19.847Z,27.50
2022-12-11T06:01:46.542Z,22.20
2022-12-11T06:04:13.337Z,23.50
2022-12-11T06:06:40.681Z,21.00
2022-12-11T06:09:07.375Z,26.00
2022-12-11T06:11:34.318Z,26.40
2022-12-11T06:14:01.880Z,20.00
2022-12-11T06:16:28.462Z,21.75
2022-12-11T06:18:58.222Z,23.50
2022-12-11T06:21:25.020Z,26.50
2022-12-11T06:23:52.660Z,27.20
2022-12-11T06:26:19.577Z,23.20
2022-12-11T06:28:46.230Z,21.75
2022-12-11T06:31:12.816Z,23.50
2022-12-11T06:33:39.726Z,67.75
2022-12-11T06:36:07.875Z,28.50
2022-12-11T06:38:34.491Z,32.50
2022-12-11T06:41:02.731Z,33.00
2022-12-11T06:43:29.309Z,27.40
2022-12-11T06:46:00.584Z,33.25
2022-12-11T06:48:30.105Z,44.00
2022-12-11T06:50:56.574Z,29.60
2022-12-11T06:53:23.028Z,24.00
2022-12-11T06:55:49.560Z,26.40
2022-12-11T06:58:16.711Z,25.20
2022-12-11T07:00:43.192Z,33.00
2022-12-11T07:03:09.987Z,28.50
2022-12-11T07:05:36.459Z,26.80
2022-12-11T07:08:02.971Z,26.00
2022-12-11T07:10:29.541Z,32.67
2022-12-11T07:12:56.066Z,28.80
2022-12-11T07:15:22.625Z,33.00
2022-12-11T07:17:49.083Z,24.00
2022-12-11T07:20:15.714Z,30.60
2022-12-11T07:22:46.393Z,32.75
2022-12-11T07:25:13.579Z,33.00
2022-12-11T07:27:40.204Z,23.00
2022-12-11T07:30:07.060Z,37.40
2022-12-11T07:32:33.633Z,34.40
2022-12-11T07:35:00.327Z,35.80
2022-12-11T07:37:26.918Z,26.00
2022-12-11T07:39:53.464Z,31.00
2022-12-11T07:42:19.918Z,26.40
2022-12-11T07:44:46.395Z,35.00
2022-12-11T07:47:12.877Z,28.50
2022-12-11T07:49:39.451Z,31.80
2022-12-11T07:52:05.858Z,40.50
2022-12-11T07:54:32.349Z,35.50
2022-12-11T07:56:58.833Z,35.00
2022-12-11T07:59:25.356Z,38.25
2022-12-11T08:01:51.809Z,28.20
2022-12-11T08:04:18.278Z,29.00
2022-12-11T08:06:44.797Z,30.00
2022-12-11T08:09:17.489Z,31.80
2022-12-11T08:11:48.411Z,32.50
2022-12-11T08:14:14.861Z,38.00
2022-12-11T08:16:43.274Z,31.75
2022-12-11T08:19:11.377Z,49.00
2022-12-11T08:21:38.368Z,40.40
2022-12-11T08:24:04.903Z,37.50
2022-12-11T08:26:31.891Z,35.50
2022-12-11T08:28:58.696Z,40.00
2022-12-11T08:31:25.326Z,49.25
2022-12-11T08:33:51.876Z,38.75
2022-12-11T08:36:20.086Z,29.00
2022-12-11T08:38:47.150Z,40.00
2022-12-11T08:41:15.112Z,35.60
2022-12-11T08:43:41.901Z,32.75
2022-12-11T08:46:09.065Z,34.75
2022-12-11T08:48:35.946Z,38.00
2022-12-11T08:51:04.058Z,25.25
2022-12-11T08:53:30.558Z,27.60
2022-12-11T08:56:07.652Z,30.80
2022-12-11T08:58:34.130Z,29.60
2022-12-11T09:01:00.681Z,27.75
2022-12-11T09:03:27.184Z,35.50
2022-12-11T09:05:53.651Z,28.60
2022-12-11T09:08:20.244Z,28.25
2022-12-11T09:10:46.734Z,25.20
2022-12-11T09:13:13.254Z,24.20
2022-12-11T09:15:42.833Z,29.00
2022-12-11T09:18:09.527Z,34.80
2022-12-11T09:20:35.965Z,30.80
2022-12-11T09:23:02.918Z,36.25
2022-12-11T09:25:29.456Z,40.25
2022-12-11T09:27:55.954Z,36.75
2022-12-11T09:30:22.499Z,38.00
2022-12-11T09:32:48.968Z,28.40
2022-12-11T09:35:15.428Z,38.50
2022-12-11T09:37:41.903Z,38.75
2022-12-11T09:40:10.079Z,36.00
2022-12-11T09:42:39.332Z,34.25
2022-12-11T09:45:07.663Z,32.25
2022-12-11T09:47:39.894Z,38.25
2022-12-11T09:50:13.947Z,30.50
2022-12-11T09:52:40.429Z,49.00
2022-12-11T09:55:14.916Z,47.50
2022-12-11T09:57:50.390Z,34.60
2022-12-11T10:00:23.646Z,48.75
2022-12-11T10:02:50.131Z,47.33
2022-12-11T10:05:21.614Z,42.40
2022-12-11T10:07:53.592Z,36.00
2022-12-11T10:10:38.898Z,42.00
2022-12-11T10:13:25.619Z,40.50
2022-12-11T10:16:00.202Z,60.75
2022-12-11T10:18:28.003Z,42.25
2022-12-11T10:20:54.936Z,45.33
2022-12-11T10:23:23.464Z,38.40
2022-12-11T10:25:53.481Z,39.00
2022-12-11T10:28:20.510Z,29.60
2022-12-11T10:30:56.029Z,52.00
2022-12-11T10:33:37.020Z,50.00
2022-12-11T10:36:04.404Z,53.00
2022-12-11T10:38:32.073Z,45.50
2022-12-11T10:41:03.731Z,57.25
2022-12-11T10:43:34.506Z,31.50
2022-12-11T10:46:01.052Z,42.00
2022-12-11T10:48:27.606Z,43.25
2022-12-11T10:51:02.626Z,37.25
2022-12-11T10:53:29.382Z,38.60
2022-12-11T10:55:58.072Z,31.25
2022-12-11T10:58:26.121Z,44.50
2022-12-11T11:01:04.620Z,45.80
2022-12-11T11:03:32.405Z,39.33
2022-12-11T11:06:18.723Z,25.75
2022-12-11T11:08:46.748Z,24.80
2022-12-11T11:11:28.366Z,24.50
2022-12-11T11:14:11.900Z,30.00
2022-12-11T11:16:39.216Z,26.60
2022-12-11T11:19:06.524Z,26.75
2022-12-11T11:21:34.524Z,21.40
2022-12-11T11:24:01.160Z,29.75
2022-12-11T11:27:04.420Z,27.00
2022-12-11T11:29:32.029Z,22.00
2022-12-11T11:32:02.930Z,31.40
2022-12-11T11:34:30.962Z,38.60
2022-12-11T11:36:58.842Z,27.25
2022-12-11T11:39:37.775Z,36.00
2022-12-11T11:42:33.747Z,34.20
2022-12-11T11:45:06.968Z,40.00
2022-12-11T11:47:43.284Z,36.20
2022-12-11T11:50:18.403Z,24.20
2022-12-11T11:52:57.278Z,46.60
2022-12-11T11:55:35.498Z,21.25
2022-12-11T11:58:13.991Z,29.40
2022-12-11T12:00:40.480Z,27.60
2022-12-11T12:03:11.463Z,28.00
2022-12-11T12:05:57.092Z,29.00
2022-12-11T12:08:46.480Z,37.40
2022-12-11T12:11:31.543Z,28.25
2022-12-11T12:13:58.054Z,33.75
2022-12-11T12:16:52.213Z,35.50
2022-12-11T12:19:35.547Z,32.50
2022-12-11T12:22:09.168Z,40.00
2022-12-11T12:24:54.199Z,29.50
2022-12-11T12:27:52.736Z,33.60
2022-12-11T12:30:23.005Z,31.00
2022-12-11T12:32:56.359Z,28.75
2022-12-11T12:35:36.766Z,38.40
2022-12-11T12:38:10.694Z,31.00
2022-12-11T12:40:37.108Z,28.50
2022-12-11T12:43:18.917Z,35.80
2022-12-11T12:45:57.008Z,38.00
2022-12-11T12:48:25.391Z,34.00
2022-12-11T12:50:52.011Z,34.40
2022-12-11T12:53:20.756Z,36.75
2022-12-11T12:55:48.023Z,35.50
2022-12-11T12:58:33.006Z,65.25
2022-12-11T13:01:20.041Z,66.75
2022-12-11T13:03:49.789Z,78.25
2022-12-11T13:06:16.489Z,72.50
2022-12-11T13:08:45.677Z,70.80
2022-12-11T13:11:13.008Z,51.00
2022-12-11T13:14:02.696Z,45.20
2022-12-11T13:16:45.565Z,39.20
2022-12-11T13:19:21.222Z,51.50
2022-12-11T13:22:03.065Z,48.00
2022-12-11T13:24:32.298Z,42.00
2022-12-11T13:27:08.864Z,49.20
2022-12-11T13:29:36.898Z,48.80
2022-12-11T13:32:03.452Z,62.00
2022-12-11T13:34:35.165Z,41.00
2022-12-11T13:37:03.000Z,59.00
2022-12-11T13:39:31.263Z,37.60
2022-12-11T13:41:59.838Z,36.00
2022-12-11T13:44:28.086Z,27.60
2022-12-11T13:46:57.183Z,40.60
2022-12-11T13:49:29.505Z,28.60
2022-12-11T13:52:00.078Z,37.75
2022-12-11T13:54:27.916Z,29.00
2022-12-11T13:56:54.385Z,38.80
2022-12-11T13:59:24.406Z,55.60
2022-12-11T14:01:51.084Z,53.00
2022-12-11T14:04:19.813Z,36.20
2022-12-11T14:06:46.337Z,34.00
2022-12-11T14:09:17.568Z,40.00
2022-12-11T14:11:44.152Z,39.75
2022-12-11T14:14:22.359Z,37.75
2022-12-11T14:16:50.173Z,39.75
2022-12-11T14:19:18.076Z,38.00
2022-12-11T14:21:54.482Z,42.33
2022-12-11T14:24:20.935Z,37.20
2022-12-11T14:26:50.515Z,43.00
2022-12-11T14:29:43.089Z,73.40
2022-12-11T14:32:14.201Z,51.25
2022-12-11T14:34:45.237Z,42.00
2022-12-11T14:37:14.584Z,57.00
2022-12-11T14:39:44.726Z,44.50
2022-12-11T14:42:15.008Z,52.00
2022-12-11T14:44:52.077Z,40.40
2022-12-11T14:47:27.009Z,42.50
2022-12-11T14:49:53.491Z,41.25
2022-12-11T14:52:21.502Z,41.00
2022-12-11T14:54:51.444Z,48.00
2022-12-11T14:57:25.890Z,69.80
2022-12-11T14:59:53.418Z,54.20
2022-12-11T15:02:36.387Z,59.80
2022-12-11T15:05:11.736Z,43.40
2022-12-11T15:07:38.288Z,38.00
2022-12-11T15:10:05.025Z,38.00
2022-12-11T15:12:32.011Z,56.00
2022-12-11T15:15:00.856Z,39.40
2022-12-11T15:17:27.695Z,51.80
2022-12-11T15:20:03.179Z,47.40
2022-12-11T15:22:31.918Z,38.00
2022-12-11T15:24:58.807Z,36.50
2022-12-11T15:27:36.867Z,41.50
2022-12-11T15:30:19.082Z,39.25
2022-12-11T15:32:45.966Z,53.00
2022-12-11T15:35:25.961Z,37.25
2022-12-11T15:37:56.170Z,40.50
2022-12-11T15:40:22.963Z,52.50
2022-12-11T15:42:50.132Z,60.67
2022-12-11T15:45:21.227Z,55.00
2022-12-11T15:47:48.203Z,55.40
2022-12-11T15:50:18.949Z,55.00
2022-12-11T15:52:46.614Z,49.80
2022-12-11T15:55:13.361Z,57.20
2022-12-11T15:57:45.188Z,56.40
2022-12-11T16:00:15.778Z,65.67
2022-12-11T16:02:42.359Z,60.00
2022-12-11T16:05:09.596Z,48.50
2022-12-11T16:07:36.418Z,57.75
2022-12-11T16:10:02.906Z,61.25
2022-12-11T16:12:29.346Z,55.50
2022-12-11T16:14:55.806Z,61.00
2022-12-11T16:17:22.295Z,53.00
2022-12-11T16:19:48.722Z,67.40
2022-12-11T16:22:15.950Z,63.33
2022-12-11T16:24:42.545Z,69.00
2022-12-11T16:27:09.922Z,85.25
2022-12-11T16:29:37.754Z,58.40
2022-12-11T16:32:07.055Z,63.50
2022-12-11T16:34:34.051Z,69.00
2022-12-11T16:37:00.894Z,47.80
2022-12-11T16:39:27.700Z,65.20
2022-12-11T16:41:54.293Z,59.50
2022-12-11T16:44:22.122Z,61.80
2022-12-11T16:46:48.554Z,61.40
2022-12-11T16:49:15.437Z,67.60
2022-12-11T16:51:41.992Z,70.40
2022-12-11T16:54:08.670Z,78.50
2022-12-11T16:56:35.329Z,67.00
2022-12-11T16:59:02.119Z,52.75
2022-12-11T17:01:28.558Z,59.00
2022-12-11T17:03:55.149Z,61.00
2022-12-11T17:06:21.734Z,58.75
2022-12-11T17:08:48.315Z,62.75
2022-12-11T17:11:16.571Z,49.75
2022-12-11T17:13:43.541Z,48.20
2022-12-11T17:16:11.618Z,52.40
2022-12-11T17:18:38.428Z,40.60
2022-12-11T17:21:06.732Z,55.50
2022-12-11T17:23:33.390Z,60.00
2022-12-11T17:25:59.888Z,61.50
2022-12-11T17:28:26.539Z,50.00
2022-12-11T17:30:53.118Z,52.25
2022-12-11T17:33:19.604Z,54.00
2022-12-11T17:35:46.058Z,47.00
2022-12-11T17:38:12.641Z,59.25
2022-12-11T17:40:40.084Z,48.00
2022-12-11T17:43:09.325Z,55.00
2022-12-11T17:45:42.666Z,47.00
2022-12-11T17:48:09.189Z,55.50
2022-12-11T17:50:36.515Z,61.50
2022-12-11T17:53:02.987Z,48.40
2022-12-11T17:55:31.238Z,65.40
2022-12-11T17:57:57.754Z,87.50
2022-12-11T18:00:25.410Z,139.75
2022-12-11T18:02:53.965Z,113.75
2022-12-11T18:05:20.489Z,72.25
2022-12-11T18:07:46.943Z,88.50
2022-12-11T18:10:13.448Z,90.60
2022-12-11T18:12:39.936Z,77.00
2022-12-11T18:15:06.634Z,75.50
2022-12-11T18:17:33.189Z,82.25
2022-12-11T18:19:59.650Z,77.25
2022-12-11T18:22:26.073Z,79.00
2022-12-11T18:24:52.552Z,80.00
2022-12-11T18:27:19.042Z,78.75
2022-12-11T18:29:45.566Z,80.50
2022-12-11T18:32:11.981Z,76.40
2022-12-11T18:34:38.410Z,78.40
2022-12-11T18:37:04.965Z,73.25
2022-12-11T18:39:31.538Z,67.75
2022-12-11T18:42:24.335Z,84.25
2022-12-11T18:44:45.536Z,129.75
2022-12-11T18:47:11.979Z,103.67
2022-12-11T18:49:38.528Z,97.60
2022-12-11T18:52:05.232Z,107.50
2022-12-11T18:54:31.793Z,101.75
2022-12-11T18:56:58.343Z,72.75
2022-12-11T18:59:24.908Z,73.50
2022-12-11T19:01:51.385Z,81.00
2022-12-11T19:04:17.881Z,81.75
2022-12-11T19:06:44.423Z,91.75
2022-12-11T19:09:12.149Z,86.75
2022-12-11T19:11:39.582Z,88.25
2022-12-11T19:14:08.930Z,85.25
2022-12-11T19:16:36.821Z,96.75
2022-12-11T19:19:05.215Z,105.00
2022-12-11T19:21:31.812Z,82.00
2022-12-11T19:23:59.387Z,92.50
2022-12-11T19:26:25.963Z,89.75
2022-12-11T19:28:53.542Z,79.25
2022-12-11T19:31:21.921Z,86.50
2022-12-11T19:33:48.756Z,92.00
2022-12-11T19:36:17.485Z,82.50
2022-12-11T19:38:45.298Z,77.20
2022-12-11T19:41:16.820Z,79.00
2022-12-11T19:43:43.452Z,76.50
2022-12-11T19:46:10.504Z,75.00
2022-12-11T19:48:37.805Z,75.75
2022-12-11T19:51:05.293Z,77.60
2022-12-11T19:53:31.885Z,81.50
2022-12-11T19:55:58.389Z,83.75
2022-12-11T19:58:24.821Z,78.00
2022-12-11T20:00:51.329Z,74.40
2022-12-11T20:03:18.010Z,73.25
2022-12-11T20:05:44.469Z,78.80
2022-12-11T20:10:57.445Z,72.80
2022-12-11T20:13:23.889Z,73.75
2022-12-11T20:15:51.572Z,74.80
2022-12-11T20:18:18.904Z,72.60
2022-12-11T20:20:45.543Z,72.60
2022-12-11T20:23:12.014Z,75.75
2022-12-11T20:25:40.073Z,70.75
2022-12-11T20:28:06.904Z,70.00
2022-12-11T20:30:33.766Z,70.00
2022-12-11T20:33:00.240Z,70.80
2022-12-11T20:35:27.368Z,74.40
2022-12-11T20:37:53.832Z,70.33
2022-12-11T20:40:20.275Z,72.50
2022-12-11T20:42:46.701Z,71.00
2022-12-11T20:45:13.480Z,68.00
2022-12-11T20:47:40.133Z,79.75
2022-12-11T20:50:06.754Z,78.00
2022-12-11T20:52:34.338Z,81.80
2022-12-11T20:55:00.763Z,81.60
2022-12-11T20:57:27.173Z,81.00
2022-12-11T20:59:53.663Z,84.00
2022-12-11T21:02:20.449Z,82.20
2022-12-11T21:04:46.911Z,85.40
2022-12-11T21:07:13.433Z,83.50
2022-12-11T21:09:40.029Z,83.75
2022-12-11T21:12:06.867Z,83.50
2022-12-11T21:14:33.956Z,70.20
2022-12-11T21:17:00.561Z,75.00
2022-12-11T21:19:27.201Z,76.50
2022-12-11T21:21:54.169Z,78.60
2022-12-11T21:24:22.269Z,69.50
2022-12-11T21:26:49.320Z,74.50
2022-12-11T21:29:16.606Z,75.00
2022-12-11T21:31:43.224Z,73.50
2022-12-11T21:34:09.729Z,70.25
2022-12-11T21:36:36.176Z,70.00
2022-12-11T21:39:03.213Z,68.50
2022-12-11T21:41:29.690Z,68.50
2022-12-11T21:45:21.155Z,71.50
2022-12-11T21:46:43.279Z,67.00
2022-12-11T21:49:10.155Z,71.25
2022-12-11T21:51:42.570Z,71.00
2022-12-11T21:54:13.572Z,79.50
2022-12-11T21:56:40.569Z,93.75
2022-12-11T21:59:07.321Z,98.50
2022-12-11T22:01:37.189Z,85.00
2022-12-11T22:04:04.987Z,80.00
2022-12-11T22:06:31.839Z,68.00
2022-12-11T22:08:58.420Z,72.40
2022-12-11T22:11:27.525Z,70.60
2022-12-11T22:13:54.087Z,68.25
2022-12-11T22:16:20.649Z,71.50
2022-12-11T22:18:47.146Z,72.00
2022-12-11T22:21:14.138Z,66.00
2022-12-11T22:23:41.431Z,70.25
2022-12-11T22:26:08.700Z,74.50
2022-12-11T22:28:35.246Z,75.00
2022-12-11T22:31:01.727Z,73.40
2022-12-11T22:33:28.220Z,73.25
2022-12-11T22:35:55.491Z,72.50
2022-12-11T22:38:22.102Z,76.00
2022-12-11T22:40:49.958Z,73.00
2022-12-11T22:43:16.596Z,74.00
2022-12-11T22:45:43.328Z,73.50
2022-12-11T22:48:10.058Z,78.40
2022-12-11T22:50:37.423Z,80.40
2022-12-11T22:53:04.494Z,75.00
2022-12-11T22:55:31.393Z,79.80
2022-12-11T22:57:57.912Z,73.25
2022-12-11T23:00:24.526Z,69.00
2022-12-11T23:02:51.116Z,69.50
2022-12-11T23:05:17.685Z,69.00
2022-12-11T23:07:44.128Z,64.00
2022-12-11T23:10:11.028Z,66.60
2022-12-11T23:12:37.512Z,66.40
2022-12-11T23:15:04.372Z,66.25
2022-12-11T23:17:31.058Z,63.75
2022-12-11T23:19:57.529Z,70.25
2022-12-11T23:22:24.058Z,68.00
2022-12-11T23:24:50.573Z,69.00
2022-12-11T23:27:17.085Z,71.80
2022-12-11T23:29:43.608Z,66.00
2022-12-11T23:32:10.108Z,71.60
2022-12-11T23:34:37.680Z,68.80
2022-12-11T23:37:04.226Z,64.50
2022-12-11T23:39:30.702Z,79.80
2022-12-11T23:41:57.175Z,92.75
2022-12-11T23:44:23.745Z,86.20
2022-12-11T23:46:50.265Z,71.40
2022-12-11T23:49:16.781Z,73.20
2022-12-11T23:51:43.732Z,75.75
2022-12-11T23:54:10.341Z,73.25
2022-12-11T23:56:36.750Z,71.40
2022-12-11T23:59:03.324Z,62.80
